Wetterdaten: Freitag, 14.02.2014
Datum Zeit Temperatur Luftfeuchte Luftdruck Regen Wind Richtung Richtung Taupunkt Windchill Windben
14.02.2014 00:00 0,8 C 93 % 1005,9 hPa 0,0 l/m 10,6 km/h (2 Bft) S 180 -0,2 C -6,8 C 23,2 km/h (4 Bft)
14.02.2014 00:05 0,8 C 93 % 1005,9 hPa 0,0 l/m 11,4 km/h (2 Bft) S 180 -0,2 C -7,7 C 18,8 km/h (3 Bft)
14.02.2014 00:10 0,9 C 93 % 1006,5 hPa 0,0 l/m 13,0 km/h (3 Bft) W-SW 247 -0,1 C -9,3 C 14,3 km/h (3 Bft)
14.02.2014 00:15 0,8 C 93 % 1006,5 hPa 0,0 l/m 11,9 km/h (2 Bft) S-SO 157 -0,2 C -8,1 C 12,7 km/h (3 Bft)
14.02.2014 00:18 0,7 C 93 % 1006,5 hPa 0,0 l/m 9,3 km/h (2 Bft) S-SO 157 -0,3 C -5,4 C 8,7 km/h (2 Bft)
14.02.2014 00:20 0,7 C 93 % 1006,5 hPa 0,0 l/m 9,3 km/h (2 Bft) S-SO 157 -0,3 C -5,4 C 8,7 km/h (2 Bft)
14.02.2014 00:25 0,8 C 93 % 1006,5 hPa 0,0 l/m 8,4 km/h (2 Bft) S 180 -0,2 C -4,0 C 7,6 km/h (2 Bft)
14.02.2014 00:30 0,8 C 94 % 1006,8 hPa 0,0 l/m 6,9 km/h (2 Bft) SO 135 -0,1 C -1,9 C 7,2 km/h (2 Bft)
14.02.2014 00:35 0,9 C 94 % 1006,8 hPa 0,0 l/m 7,1 km/h (2 Bft) S 180 0,0 C -2,2 C 7,2 km/h (2 Bft)
14.02.2014 00:40 0,7 C 94 % 1006,8 hPa 0,0 l/m 8,9 km/h (2 Bft) O 90 -0,2 C -4,8 C 6,9 km/h (2 Bft)
14.02.2014 00:45 0,7 C 94 % 1006,8 hPa 0,0 l/m 9,8 km/h (2 Bft) S-SO 157 -0,2 C -5,8 C 15,0 km/h (3 Bft)
14.02.2014 00:50 0,6 C 94 % 1007,3 hPa 0,0 l/m 11,3 km/h (2 Bft) S 180 -0,3 C -7,4 C 6,9 km/h (2 Bft)
14.02.2014 00:55 0,6 C 94 % 1007,3 hPa 0,0 l/m 10,0 km/h (2 Bft) S 180 -0,3 C -6,1 C 7,6 km/h (2 Bft)
14.02.2014 01:00 0,6 C 94 % 1007,3 hPa 0,0 l/m 8,2 km/h (2 Bft) S-SO 157 -0,3 C -3,8 C 14,8 km/h (3 Bft)
14.02.2014 01:05 0,6 C 94 % 1007,3 hPa 0,0 l/m 9,5 km/h (2 Bft) SO 135 -0,3 C -5,5 C 8,9 km/h (2 Bft)
14.02.2014 01:10 0,5 C 94 % 1007,6 hPa 0,0 l/m 10,1 km/h (2 Bft) SO 135 -0,4 C -6,5 C 10,0 km/h (2 Bft)
14.02.2014 01:15 0,4 C 94 % 1007,6 hPa 0,0 l/m 9,0 km/h (2 Bft) S 180 -0,5 C -5,4 C 11,6 km/h (2 Bft)
14.02.2014 01:20 0,5 C 94 % 1007,6 hPa 0,0 l/m 9,8 km/h (2 Bft) S 180 -0,4 C -6,3 C 16,3 km/h (3 Bft)
14.02.2014 01:25 0,6 C 94 % 1007,6 hPa 0,0 l/m 12,2 km/h (2 Bft) S 180 -0,3 C -8,6 C 22,5 km/h (4 Bft)
14.02.2014 01:30 0,6 C 93 % 1007,8 hPa 0,0 l/m 16,3 km/h (3 Bft) O 90 -0,4 C -12,3 C 29,1 km/h (5 Bft)
14.02.2014 01:35 0,6 C 93 % 1007,8 hPa 0,0 l/m 18,0 km/h (3 Bft) W-SW 247 -0,4 C -13,4 C 16,4 km/h (3 Bft)
14.02.2014 01:40 0,4 C 92 % 1007,8 hPa 0,0 l/m 14,8 km/h (3 Bft) S-SO 157 -0,7 C -11,0 C 30,9 km/h (5 Bft)
14.02.2014 01:45 0,3 C 92 % 1007,8 hPa 0,0 l/m 14,0 km/h (3 Bft) S-SW 202 -0,8 C -10,3 C 14,8 km/h (3 Bft)
14.02.2014 01:50 0,4 C 92 % 1008,4 hPa 0,0 l/m 14,8 km/h (3 Bft) S 180 -0,7 C -11,1 C 17,2 km/h (3 Bft)
14.02.2014 01:55 0,3 C 91 % 1008,4 hPa 0,0 l/m 14,5 km/h (3 Bft) S-SO 157 -1,0 C -10,8 C 12,1 km/h (2 Bft)
14.02.2014 02:00 0,3 C 91 % 1008,4 hPa 0,0 l/m 14,2 km/h (3 Bft) S 180 -1,0 C -10,8 C 12,9 km/h (3 Bft)
14.02.2014 02:05 0,1 C 91 % 1008,4 hPa 0,0 l/m 12,1 km/h (2 Bft) SO 135 -1,2 C -8,9 C 17,4 km/h (3 Bft)
14.02.2014 02:10 0,0 C 91 % 1008,8 hPa 0,0 l/m 10,9 km/h (2 Bft) S-SO 157 -1,3 C -7,8 C 11,6 km/h (2 Bft)
14.02.2014 02:15 0,1 C 90 % 1008,8 hPa 0,0 l/m 11,7 km/h (2 Bft) S-SO 157 -1,3 C -8,8 C 10,1 km/h (2 Bft)
14.02.2014 02:20 0,1 C 90 % 1008,8 hPa 0,0 l/m 13,8 km/h (3 Bft) S-SO 157 -1,3 C -10,9 C 36,2 km/h (5 Bft)
14.02.2014 02:25 0,0 C 89 % 1008,8 hPa 0,0 l/m 14,0 km/h (3 Bft) S-SO 157 -1,6 C -11,0 C 17,7 km/h (3 Bft)
14.02.2014 02:30 0,1 C 88 % 1009,2 hPa 0,0 l/m 11,6 km/h (2 Bft) S-SO 157 -1,6 C -8,6 C 9,5 km/h (2 Bft)
14.02.2014 02:35 0,1 C 88 % 1009,2 hPa 0,0 l/m 10,9 km/h (2 Bft) S-SO 157 -1,6 C -7,8 C 10,3 km/h (2 Bft)
14.02.2014 02:40 0,1 C 88 % 1009,2 hPa 0,0 l/m 11,1 km/h (2 Bft) S-SO 157 -1,6 C -7,7 C 12,6 km/h (3 Bft)
14.02.2014 02:45 0,2 C 87 % 1009,2 hPa 0,0 l/m 10,9 km/h (2 Bft) S-SO 157 -1,7 C -7,3 C 9,7 km/h (2 Bft)
14.02.2014 02:50 0,3 C 86 % 1009,7 hPa 0,0 l/m 9,8 km/h (2 Bft) S-SO 157 -1,8 C -5,9 C 14,8 km/h (3 Bft)
14.02.2014 02:55 0,4 C 85 % 1009,7 hPa 0,0 l/m 10,3 km/h (2 Bft) S-SO 157 -1,8 C -6,4 C 12,1 km/h (2 Bft)
14.02.2014 03:00 0,3 C 85 % 1009,7 hPa 0,0 l/m 10,6 km/h (2 Bft) S-SO 157 -1,9 C -6,8 C 8,4 km/h (2 Bft)
14.02.2014 03:05 0,2 C 86 % 1009,7 hPa 0,0 l/m 8,5 km/h (2 Bft) S-SO 157 -1,9 C -4,4 C 6,9 km/h (2 Bft)
14.02.2014 03:10 0,3 C 86 % 1009,8 hPa 0,0 l/m 7,9 km/h (2 Bft) S-SO 157 -1,8 C -3,5 C 10,1 km/h (2 Bft)
14.02.2014 03:15 0,4 C 86 % 1009,8 hPa 0,0 l/m 8,7 km/h (2 Bft) S-SO 157 -1,7 C -4,5 C 8,4 km/h (2 Bft)
14.02.2014 03:20 0,5 C 84 % 1009,8 hPa 0,0 l/m 9,8 km/h (2 Bft) S-SO 157 -1,9 C -5,7 C 16,4 km/h (3 Bft)
14.02.2014 03:25 0,4 C 83 % 1009,8 hPa 0,0 l/m 10,1 km/h (2 Bft) S-SO 157 -2,1 C -6,1 C 15,0 km/h (3 Bft)
14.02.2014 03:30 0,5 C 80 % 1010,1 hPa 0,0 l/m 12,2 km/h (2 Bft) S-SO 157 -2,5 C -8,4 C 14,8 km/h (3 Bft)
14.02.2014 03:35 0,5 C 79 % 1010,1 hPa 0,0 l/m 14,2 km/h (3 Bft) S-SO 157 -2,7 C -10,3 C 23,7 km/h (4 Bft)
14.02.2014 03:40 0,2 C 79 % 1010,1 hPa 0,0 l/m 15,0 km/h (3 Bft) S-SO 157 -3,0 C -11,1 C 16,6 km/h (3 Bft)
14.02.2014 03:45 0,2 C 78 % 1010,1 hPa 0,0 l/m 14,2 km/h (3 Bft) S-SO 157 -3,2 C -10,8 C 8,7 km/h (2 Bft)
14.02.2014 03:50 0,0 C 79 % 1010,1 hPa 0,0 l/m 12,4 km/h (3 Bft) S-SO 157 -3,2 C -9,2 C 15,9 km/h (3 Bft)
14.02.2014 03:55 0,0 C 79 % 1010,1 hPa 0,0 l/m 12,1 km/h (2 Bft) S-SO 157 -3,2 C -9,1 C 19,3 km/h (3 Bft)
14.02.2014 04:00 0,0 C 78 % 1010,1 hPa 0,0 l/m 13,7 km/h (3 Bft) S-SO 157 -3,4 C -10,7 C 9,3 km/h (2 Bft)
14.02.2014 04:05 0,0 C 77 % 1010,1 hPa 0,0 l/m 13,7 km/h (3 Bft) S-SO 157 -3,5 C -10,8 C 18,7 km/h (3 Bft)
14.02.2014 04:10 0,1 C 77 % 1010,3 hPa 0,0 l/m 13,5 km/h (3 Bft) S-SO 157 -3,4 C -10,5 C 16,1 km/h (3 Bft)
14.02.2014 04:15 -0,1 C 78 % 1010,3 hPa 0,0 l/m 13,4 km/h (3 Bft) S-SO 157 -3,5 C -10,5 C 11,1 km/h (2 Bft)
14.02.2014 04:20 -0,2 C 78 % 1010,3 hPa 0,0 l/m 11,9 km/h (2 Bft) S-SO 157 -3,6 C -9,2 C 12,4 km/h (3 Bft)
14.02.2014 04:25 -0,2 C 78 % 1010,3 hPa 0,0 l/m 12,2 km/h (2 Bft) S-SO 157 -3,6 C -9,4 C 15,3 km/h (3 Bft)
14.02.2014 04:30 -0,3 C 78 % 1010,1 hPa 0,0 l/m 11,3 km/h (2 Bft) S-SO 157 -3,7 C -8,5 C 8,5 km/h (2 Bft)
14.02.2014 04:35 -0,5 C 78 % 1010,1 hPa 0,0 l/m 10,8 km/h (2 Bft) S-SO 157 -3,9 C -8,0 C 11,1 km/h (2 Bft)
14.02.2014 04:40 -0,4 C 78 % 1010,1 hPa 0,0 l/m 10,6 km/h (2 Bft) S-SO 157 -3,8 C -8,1 C 14,0 km/h (3 Bft)
14.02.2014 04:45 -0,3 C 77 % 1010,1 hPa 0,0 l/m 11,6 km/h (2 Bft) S-SO 157 -3,8 C -8,9 C 11,6 km/h (2 Bft)
14.02.2014 04:50 -0,2 C 76 % 1010,2 hPa 0,0 l/m 12,1 km/h (2 Bft) S-SO 157 -3,9 C -9,3 C 14,5 km/h (3 Bft)
14.02.2014 04:55 -0,3 C 76 % 1010,2 hPa 0,0 l/m 11,4 km/h (2 Bft) S-SO 157 -4,0 C -8,7 C 10,3 km/h (2 Bft)
14.02.2014 05:00 -0,1 C 75 % 1010,2 hPa 0,0 l/m 12,2 km/h (2 Bft) S-SO 157 -4,0 C -9,3 C 14,0 km/h (3 Bft)
14.02.2014 05:05 -0,1 C 74 % 1010,2 hPa 0,0 l/m 12,6 km/h (3 Bft) S-SO 157 -4,2 C -9,7 C 10,9 km/h (2 Bft)
14.02.2014 05:10 -0,1 C 73 % 1010,2 hPa 0,0 l/m 12,4 km/h (3 Bft) S-SO 157 -4,3 C -9,5 C 10,0 km/h (2 Bft)
14.02.2014 05:15 -0,3 C 74 % 1010,2 hPa 0,0 l/m 11,3 km/h (2 Bft) S-SO 157 -4,4 C -8,3 C 10,3 km/h (2 Bft)
14.02.2014 05:18 -0,2 C 72 % 1010,2 hPa 0,0 l/m 10,9 km/h (2 Bft) S-SO 157 -4,6 C -7,9 C 12,6 km/h (3 Bft)
14.02.2014 05:20 -0,2 C 72 % 1010,2 hPa 0,0 l/m 10,9 km/h (2 Bft) S-SO 157 -4,6 C -7,9 C 12,6 km/h (3 Bft)
14.02.2014 05:25 -0,3 C 73 % 1010,2 hPa 0,0 l/m 10,9 km/h (2 Bft) S-SO 157 -4,5 C -8,0 C 10,8 km/h (2 Bft)
14.02.2014 05:30 -0,3 C 73 % 1010,6 hPa 0,0 l/m 10,8 km/h (2 Bft) S-SO 157 -4,5 C -7,9 C 17,2 km/h (3 Bft)
14.02.2014 05:35 -0,2 C 72 % 1010,6 hPa 0,0 l/m 11,1 km/h (2 Bft) S-SO 157 -4,6 C -8,3 C 8,9 km/h (2 Bft)
14.02.2014 05:40 -0,2 C 71 % 1010,6 hPa 0,0 l/m 10,9 km/h (2 Bft) S-SO 157 -4,8 C -8,0 C 15,9 km/h (3 Bft)
14.02.2014 05:45 -0,3 C 71 % 1010,6 hPa 0,0 l/m 10,8 km/h (2 Bft) S-SO 157 -4,9 C -7,9 C 10,6 km/h (2 Bft)
14.02.2014 05:50 -0,3 C 72 % 1010,6 hPa 0,0 l/m 11,4 km/h (2 Bft) S-SO 157 -4,7 C -8,7 C 17,9 km/h (3 Bft)
14.02.2014 05:55 -0,4 C 72 % 1010,6 hPa 0,0 l/m 11,6 km/h (2 Bft) S-SO 157 -4,8 C -8,8 C 7,4 km/h (2 Bft)
14.02.2014 06:00 -0,5 C 72 % 1010,6 hPa 0,0 l/m 10,9 km/h (2 Bft) S-SO 157 -4,9 C -8,2 C 13,7 km/h (3 Bft)
14.02.2014 06:05 -0,4 C 72 % 1010,6 hPa 0,0 l/m 10,0 km/h (2 Bft) S-SO 157 -4,8 C -7,4 C 7,6 km/h (2 Bft)
14.02.2014 06:10 -0,5 C 72 % 1010,8 hPa 0,0 l/m 10,1 km/h (2 Bft) S-SO 157 -4,9 C -7,5 C 12,2 km/h (2 Bft)
14.02.2014 06:15 -0,5 C 72 % 1010,8 hPa 0,0 l/m 9,8 km/h (2 Bft) S-SO 157 -4,9 C -7,1 C 9,7 km/h (2 Bft)
14.02.2014 06:20 -0,9 C 73 % 1010,8 hPa 0,0 l/m 8,7 km/h (2 Bft) S-SO 157 -5,1 C -5,8 C 10,8 km/h (2 Bft)
14.02.2014 06:25 -0,8 C 73 % 1010,8 hPa 0,0 l/m 8,2 km/h (2 Bft) S-SO 157 -5,0 C -5,3 C 8,7 km/h (2 Bft)
14.02.2014 06:30 -1,0 C 75 % 1010,9 hPa 0,0 l/m 8,2 km/h (2 Bft) S-SO 157 -4,9 C -5,5 C 7,2 km/h (2 Bft)
14.02.2014 06:35 -0,9 C 74 % 1010,9 hPa 0,0 l/m 7,7 km/h (2 Bft) S-SO 157 -4,9 C -4,9 C 7,6 km/h (2 Bft)
14.02.2014 06:40 -1,3 C 76 % 1010,9 hPa 0,0 l/m 6,9 km/h (2 Bft) S-SO 157 -5,0 C -3,8 C 6,6 km/h (2 Bft)
14.02.2014 06:45 -1,2 C 76 % 1010,9 hPa 0,0 l/m 5,8 km/h (2 Bft) S-SO 157 -4,9 C -2,9 C 4,5 km/h (1 Bft)
14.02.2014 06:50 -1,1 C 75 % 1010,9 hPa 0,0 l/m 5,3 km/h (1 Bft) S-SO 157 -5,0 C -3,0 C 7,1 km/h (2 Bft)
14.02.2014 06:55 -1,1 C 75 % 1010,9 hPa 0,0 l/m 4,7 km/h (1 Bft) S-SO 157 -5,0 C -2,7 C 5,6 km/h (1 Bft)
14.02.2014 07:00 -1,1 C 75 % 1010,9 hPa 0,0 l/m 5,0 km/h (1 Bft) S-SO 157 -5,0 C -3,1 C 5,8 km/h (2 Bft)
14.02.2014 07:05 -1,3 C 74 % 1010,9 hPa 0,0 l/m 4,5 km/h (1 Bft) S-SO 157 -5,3 C -3,1 C 4,0 km/h (1 Bft)
14.02.2014 07:10 -1,8 C 76 % 1010,9 hPa 0,0 l/m 3,7 km/h (1 Bft) S-SO 157 -5,5 C -3,0 C 5,6 km/h (1 Bft)
14.02.2014 07:15 -1,6 C 76 % 1010,9 hPa 0,0 l/m 4,3 km/h (1 Bft) S-SO 157 -5,3 C -3,4 C 5,5 km/h (1 Bft)
14.02.2014 07:20 -2,0 C 78 % 1010,9 hPa 0,0 l/m 3,4 km/h (1 Bft) S-SO 157 -5,3 C -3,2 C 4,8 km/h (1 Bft)
14.02.2014 07:25 -2,2 C 78 % 1010,9 hPa 0,0 l/m 2,7 km/h (1 Bft) S-SO 157 -5,5 C -2,7 C 4,2 km/h (1 Bft)
14.02.2014 07:30 -2,0 C 78 % 1011,1 hPa 0,0 l/m 3,5 km/h (1 Bft) S-SO 157 -5,3 C -3,4 C 2,9 km/h (1 Bft)
14.02.2014 07:35 -2,5 C 79 % 1011,1 hPa 0,0 l/m 2,1 km/h (1 Bft) S-SO 157 -5,6 C -2,6 C 0,0 km/h (0 Bft)
14.02.2014 07:40 -2,7 C 79 % 1011,1 hPa 0,0 l/m 0,5 km/h (0 Bft) S-SO 157 -5,8 C -3,1 C 0,0 km/h (0 Bft)
14.02.2014 07:45 -2,6 C 80 % 1011,1 hPa 0,0 l/m 0,5 km/h (0 Bft) S-SO 157 -5,6 C -3,3 C 5,3 km/h (1 Bft)
14.02.2014 07:50 -2,1 C 80 % 1011,2 hPa 0,0 l/m 2,1 km/h (1 Bft) S-SO 157 -5,1 C -3,1 C 4,7 km/h (1 Bft)
14.02.2014 07:55 -2,0 C 80 % 1011,2 hPa 0,0 l/m 2,7 km/h (1 Bft) S-SO 157 -5,0 C -3,6 C 1,8 km/h (1 Bft)
14.02.2014 08:00 -2,6 C 80 % 1011,2 hPa 0,0 l/m 1,1 km/h (1 Bft) S-SO 157 -5,6 C -3,1 C 0,0 km/h (0 Bft)
14.02.2014 08:05 -2,5 C 80 % 1011,2 hPa 0,0 l/m 0,5 km/h (0 Bft) S-SO 157 -5,5 C -3,3 C 4,5 km/h (1 Bft)
14.02.2014 08:10 -2,2 C 81 % 1011,6 hPa 0,0 l/m 2,7 km/h (1 Bft) S-SO 157 -5,0 C -3,7 C 6,8 km/h (2 Bft)
14.02.2014 08:15 -2,3 C 80 % 1011,6 hPa 0,0 l/m 4,0 km/h (1 Bft) S-SO 157 -5,3 C -4,3 C 3,1 km/h (1 Bft)
14.02.2014 08:20 -2,4 C 81 % 1011,6 hPa 0,0 l/m 2,4 km/h (1 Bft) S-SO 157 -5,2 C -3,1 C 4,0 km/h (1 Bft)
14.02.2014 08:25 -2,2 C 81 % 1011,6 hPa 0,0 l/m 1,8 km/h (1 Bft) S-SO 157 -5,0 C -3,0 C 6,0 km/h (2 Bft)
14.02.2014 08:30 -2,0 C 81 % 1011,9 hPa 0,0 l/m 3,2 km/h (1 Bft) S-SO 157 -4,8 C -3,8 C 3,5 km/h (1 Bft)
14.02.2014 08:35 -1,8 C 81 % 1011,9 hPa 0,0 l/m 2,3 km/h (1 Bft) S-SO 157 -4,6 C -2,8 C 0,0 km/h (0 Bft)
14.02.2014 08:40 -2,5 C 81 % 1011,9 hPa 0,0 l/m 0,5 km/h (0 Bft) S-SO 157 -5,3 C -2,9 C 0,0 km/h (0 Bft)
14.02.2014 08:45 -2,7 C 81 % 1011,9 hPa 0,0 l/m 0,2 km/h (0 Bft) S-SO 157 -5,5 C -3,1 C 0,0 km/h (0 Bft)
14.02.2014 08:50 -2,5 C 82 % 1011,9 hPa 0,0 l/m 0,2 km/h (0 Bft) S-SO 157 -5,1 C -3,1 C 0,0 km/h (0 Bft)
14.02.2014 08:55 -2,4 C 83 % 1011,9 hPa 0,0 l/m 0,3 km/h (0 Bft) S-SO 157 -4,9 C -3,0 C 0,0 km/h (0 Bft)
14.02.2014 09:00 -1,5 C 83 % 1011,9 hPa 0,0 l/m 2,6 km/h (1 Bft) S-SO 157 -4,0 C -2,6 C 0,0 km/h (0 Bft)
14.02.2014 09:05 -1,6 C 82 % 1011,9 hPa 0,0 l/m 3,7 km/h (1 Bft) S-SO 157 -4,3 C -3,1 C 4,7 km/h (1 Bft)
14.02.2014 09:10 -1,4 C 82 % 1012,2 hPa 0,0 l/m 2,4 km/h (1 Bft) S-SO 157 -4,1 C -1,7 C 3,1 km/h (1 Bft)
14.02.2014 09:15 -1,2 C 82 % 1012,2 hPa 0,0 l/m 1,4 km/h (1 Bft) S-SO 157 -3,9 C -1,5 C 0,0 km/h (0 Bft)
14.02.2014 09:20 -1,1 C 81 % 1012,2 hPa 0,0 l/m 0,8 km/h (0 Bft) S-SO 157 -3,9 C -1,0 C 0,0 km/h (0 Bft)
14.02.2014 09:25 -1,0 C 81 % 1012,2 hPa 0,0 l/m 1,1 km/h (1 Bft) S-SO 157 -3,8 C 0,0 C 2,3 km/h (1 Bft)
14.02.2014 09:30 -0,7 C 79 % 1012,4 hPa 0,0 l/m 0,8 km/h (0 Bft) S-SO 157 -3,9 C 1,5 C 2,1 km/h (1 Bft)
14.02.2014 09:35 -0,5 C 79 % 1012,4 hPa 0,0 l/m 1,4 km/h (1 Bft) S-SO 157 -3,7 C 1,5 C 4,0 km/h (1 Bft)
14.02.2014 09:40 -0,6 C 79 % 1012,4 hPa 0,0 l/m 1,8 km/h (1 Bft) S-SO 157 -3,8 C 1,2 C 0,0 km/h (0 Bft)
14.02.2014 09:45 -0,6 C 80 % 1012,4 hPa 0,0 l/m 0,8 km/h (0 Bft) S-SO 157 -3,6 C 1,5 C 0,0 km/h (0 Bft)
14.02.2014 09:50 -0,7 C 80 % 1012,6 hPa 0,0 l/m 0,0 km/h (0 Bft) S-SO 157 -3,7 C 1,5 C 0,0 km/h (0 Bft)
14.02.2014 09:55 -0,2 C 81 % 1012,6 hPa 0,0 l/m 0,0 km/h (0 Bft) S-SO 157 -3,1 C 1,4 C 0,0 km/h (0 Bft)
14.02.2014 10:00 0,2 C 81 % 1012,6 hPa 0,0 l/m 0,2 km/h (0 Bft) S-SO 157 -2,7 C 1,6 C 0,0 km/h (0 Bft)
14.02.2014 10:05 0,1 C 80 % 1012,6 hPa 0,0 l/m 0,2 km/h (0 Bft) S-SO 157 -2,9 C 1,8 C 0,0 km/h (0 Bft)
14.02.2014 10:10 0,2 C 81 % 1012,4 hPa 0,0 l/m 1,0 km/h (0 Bft) O-SO 112 -2,7 C 3,7 C 2,3 km/h (1 Bft)
14.02.2014 10:15 0,2 C 82 % 1012,4 hPa 0,0 l/m 1,3 km/h (1 Bft) O-SO 112 -2,5 C 4,7 C 1,6 km/h (1 Bft)
14.02.2014 10:19 0,5 C 83 % 1012,4 hPa 0,0 l/m 1,0 km/h (0 Bft) S-SO 157 -2,0 C 6,3 C 0,0 km/h (0 Bft)
14.02.2014 10:20 0,5 C 83 % 1012,4 hPa 0,0 l/m 1,0 km/h (0 Bft) S-SO 157 -2,0 C 6,3 C 0,0 km/h (0 Bft)
14.02.2014 10:25 0,5 C 82 % 1012,4 hPa 0,0 l/m 0,6 km/h (0 Bft) N 360 -2,2 C 7,6 C 4,3 km/h (1 Bft)
14.02.2014 10:30 0,6 C 80 % 1012,7 hPa 0,0 l/m 1,3 km/h (1 Bft) W-NW 292 -2,4 C 8,8 C 0,0 km/h (0 Bft)
14.02.2014 10:35 0,4 C 82 % 1012,7 hPa 0,0 l/m 1,4 km/h (1 Bft) NW 315 -2,3 C 9,5 C 1,6 km/h (1 Bft)
14.02.2014 10:40 1,0 C 80 % 1012,7 hPa 0,0 l/m 0,6 km/h (0 Bft) O-SO 112 -2,1 C 10,6 C 2,9 km/h (1 Bft)
14.02.2014 10:45 1,4 C 80 % 1012,7 hPa 0,0 l/m 1,9 km/h (1 Bft) O 90 -1,7 C 10,7 C 5,3 km/h (1 Bft)
14.02.2014 10:50 2,0 C 77 % 1013,1 hPa 0,0 l/m 3,1 km/h (1 Bft) NO 45 -1,6 C 10,4 C 0,0 km/h (0 Bft)
14.02.2014 10:55 2,3 C 77 % 1013,1 hPa 0,0 l/m 1,9 km/h (1 Bft) O-NO 67 -1,3 C 10,6 C 0,0 km/h (0 Bft)
14.02.2014 11:00 2,8 C 78 % 1013,1 hPa 0,0 l/m 0,5 km/h (0 Bft) O 90 -0,6 C 11,3 C 1,8 km/h (1 Bft)
14.02.2014 11:05 2,5 C 78 % 1013,1 hPa 0,0 l/m 0,6 km/h (0 Bft) N-NW 337 -0,9 C 11,5 C 0,0 km/h (0 Bft)
14.02.2014 11:10 2,3 C 69 % 1013,6 hPa 0,0 l/m 2,3 km/h (1 Bft) N 360 -2,8 C 11,1 C 5,8 km/h (2 Bft)
14.02.2014 11:15 2,6 C 66 % 1013,6 hPa 0,0 l/m 3,5 km/h (1 Bft) NW 315 -3,1 C 10,7 C 5,0 km/h (1 Bft)
14.02.2014 11:20 2,5 C 66 % 1013,6 hPa 0,0 l/m 3,9 km/h (1 Bft) N 360 -3,2 C 10,3 C 0,0 km/h (0 Bft)
14.02.2014 11:25 2,6 C 71 % 1013,6 hPa 0,0 l/m 2,7 km/h (1 Bft) N-NW 337 -2,1 C 10,7 C 7,6 km/h (2 Bft)
14.02.2014 11:30 3,7 C 61 % 1013,4 hPa 0,0 l/m 3,2 km/h (1 Bft) N 360 -3,1 C 10,5 C 3,2 km/h (1 Bft)
14.02.2014 11:35 3,7 C 55 % 1013,4 hPa 0,0 l/m 4,8 km/h (1 Bft) N 360 -4,5 C 10,1 C 6,3 km/h (2 Bft)
14.02.2014 11:40 5,0 C 49 % 1013,4 hPa 0,0 l/m 4,2 km/h (1 Bft) NO 45 -4,8 C 10,2 C 6,4 km/h (2 Bft)
14.02.2014 11:45 5,5 C 54 % 1013,4 hPa 0,0 l/m 4,0 km/h (1 Bft) NW 315 -3,1 C 10,4 C 3,9 km/h (1 Bft)
14.02.2014 11:50 5,5 C 47 % 1013,4 hPa 0,0 l/m 4,0 km/h (1 Bft) W-NW 292 -4,9 C 10,4 C 4,3 km/h (1 Bft)
14.02.2014 11:55 5,4 C 51 % 1013,4 hPa 0,0 l/m 4,2 km/h (1 Bft) N-NO 22 -3,9 C 10,5 C 7,4 km/h (2 Bft)
14.02.2014 12:00 5,8 C 45 % 1013,4 hPa 0,0 l/m 4,7 km/h (1 Bft) W-NW 292 -5,2 C 9,9 C 3,7 km/h (1 Bft)
14.02.2014 12:05 5,6 C 44 % 1013,4 hPa 0,0 l/m 4,8 km/h (1 Bft) N-NO 22 -5,7 C 9,8 C 6,6 km/h (2 Bft)
14.02.2014 12:10 6,2 C 44 % 1013,4 hPa 0,0 l/m 4,2 km/h (1 Bft) N-NW 337 -5,1 C 9,9 C 3,5 km/h (1 Bft)
14.02.2014 12:15 6,4 C 40 % 1013,4 hPa 0,0 l/m 4,8 km/h (1 Bft) SO 135 -6,2 C 10,1 C 5,3 km/h (1 Bft)
14.02.2014 12:20 6,0 C 40 % 1013,4 hPa 0,0 l/m 5,1 km/h (1 Bft) NW 315 -6,6 C 10,2 C 7,2 km/h (2 Bft)
14.02.2014 12:25 5,7 C 43 % 1013,4 hPa 0,0 l/m 4,8 km/h (1 Bft) N-NW 337 -5,9 C 10,3 C 7,1 km/h (2 Bft)
14.02.2014 12:30 6,4 C 41 % 1013,4 hPa 0,0 l/m 3,9 km/h (1 Bft) N-NW 337 -5,9 C 11,0 C 4,3 km/h (1 Bft)
14.02.2014 12:35 6,1 C 43 % 1013,4 hPa 0,0 l/m 3,4 km/h (1 Bft) W-NW 292 -5,5 C 11,2 C 0,0 km/h (0 Bft)
14.02.2014 12:40 5,6 C 43 % 1013,4 hPa 0,0 l/m 2,9 km/h (1 Bft) W-NW 292 -6,0 C 11,2 C 3,5 km/h (1 Bft)
14.02.2014 12:45 5,3 C 42 % 1013,4 hPa 0,0 l/m 3,1 km/h (1 Bft) N 360 -6,6 C 11,2 C 4,7 km/h (1 Bft)
14.02.2014 12:50 5,1 C 44 % 1013,6 hPa 0,0 l/m 4,7 km/h (1 Bft) N-NW 337 -6,1 C 10,9 C 7,2 km/h (2 Bft)
14.02.2014 12:55 4,7 C 46 % 1013,6 hPa 0,0 l/m 4,5 km/h (1 Bft) W-SW 247 -5,9 C 11,1 C 2,1 km/h (1 Bft)
14.02.2014 13:00 4,8 C 45 % 1013,6 hPa 0,0 l/m 3,4 km/h (1 Bft) W-NW 292 -6,1 C 11,7 C 3,9 km/h (1 Bft)
14.02.2014 13:05 4,9 C 43 % 1013,6 hPa 0,0 l/m 2,6 km/h (1 Bft) NO 45 -6,6 C 12,0 C 0,0 km/h (0 Bft)
14.02.2014 13:10 4,9 C 44 % 1013,2 hPa 0,0 l/m 2,9 km/h (1 Bft) NW 315 -6,3 C 12,6 C 5,8 km/h (2 Bft)
14.02.2014 13:15 5,1 C 43 % 1013,2 hPa 0,0 l/m 3,2 km/h (1 Bft) W-SW 247 -6,4 C 12,5 C 2,9 km/h (1 Bft)
14.02.2014 13:20 5,6 C 43 % 1013,2 hPa 0,0 l/m 3,1 km/h (1 Bft) N-NO 22 -6,0 C 12,7 C 2,1 km/h (1 Bft)
14.02.2014 13:25 5,6 C 43 % 1013,2 hPa 0,0 l/m 3,5 km/h (1 Bft) N 360 -6,0 C 12,7 C 4,5 km/h (1 Bft)
14.02.2014 13:30 6,1 C 39 % 1013,2 hPa 0,0 l/m 4,8 km/h (1 Bft) NW 315 -6,8 C 12,1 C 5,0 km/h (1 Bft)
14.02.2014 13:35 5,9 C 39 % 1013,2 hPa 0,0 l/m 5,1 km/h (1 Bft) NO 45 -7,0 C 12,1 C 6,4 km/h (2 Bft)
14.02.2014 13:40 6,0 C 41 % 1013,2 hPa 0,0 l/m 5,1 km/h (1 Bft) W 270 -6,2 C 12,1 C 3,5 km/h (1 Bft)
14.02.2014 13:45 5,9 C 40 % 1013,2 hPa 0,0 l/m 5,5 km/h (1 Bft) N 360 -6,6 C 11,6 C 7,4 km/h (2 Bft)
14.02.2014 13:50 6,0 C 40 % 1012,5 hPa 0,0 l/m 5,0 km/h (1 Bft) N-NW 337 -6,6 C 10,4 C 6,3 km/h (2 Bft)
14.02.2014 13:55 6,8 C 40 % 1012,5 hPa 0,0 l/m 4,3 km/h (1 Bft) N-NO 22 -5,8 C 10,6 C 4,5 km/h (1 Bft)
14.02.2014 14:00 6,9 C 39 % 1012,5 hPa 0,0 l/m 4,8 km/h (1 Bft) N-NW 337 -6,1 C 11,2 C 7,2 km/h (2 Bft)
14.02.2014 14:05 6,9 C 40 % 1012,5 hPa 0,0 l/m 5,0 km/h (1 Bft) N-NO 22 -5,7 C 11,4 C 7,6 km/h (2 Bft)
14.02.2014 14:10 7,1 C 40 % 1012,4 hPa 0,0 l/m 4,7 km/h (1 Bft) N-NO 22 -5,6 C 10,9 C 5,6 km/h (1 Bft)
14.02.2014 14:15 6,9 C 40 % 1012,4 hPa 0,0 l/m 5,0 km/h (1 Bft) N-NW 337 -5,7 C 10,4 C 6,3 km/h (2 Bft)
14.02.2014 14:20 6,9 C 39 % 1012,4 hPa 0,0 l/m 4,8 km/h (1 Bft) N-NW 337 -6,1 C 10,1 C 7,4 km/h (2 Bft)
14.02.2014 14:26 6,7 C 40 % 1012,4 hPa 0,0 l/m 4,8 km/h (1 Bft) N 360 -5,9 C 9,8 C 6,9 km/h (2 Bft)
14.02.2014 14:30 6,6 C 41 % 1011,9 hPa 0,0 l/m 5,0 km/h (1 Bft) NW 315 -5,7 C 8,9 C 4,5 km/h (1 Bft)
14.02.2014 14:35 6,7 C 41 % 1011,9 hPa 0,0 l/m 4,5 km/h (1 Bft) NW 315 -5,6 C 8,8 C 3,9 km/h (1 Bft)
14.02.2014 14:40 6,7 C 40 % 1011,9 hPa 0,0 l/m 3,7 km/h (1 Bft) W-NW 292 -5,9 C 8,9 C 5,5 km/h (1 Bft)
14.02.2014 14:45 6,7 C 42 % 1011,9 hPa 0,0 l/m 2,7 km/h (1 Bft) N-NO 22 -5,3 C 8,8 C 1,6 km/h (1 Bft)
14.02.2014 14:50 6,7 C 40 % 1011,4 hPa 0,0 l/m 3,1 km/h (1 Bft) N-NW 337 -5,9 C 8,7 C 6,1 km/h (2 Bft)
14.02.2014 14:55 6,7 C 40 % 1011,4 hPa 0,0 l/m 3,5 km/h (1 Bft) SO 135 -5,9 C 8,6 C 6,6 km/h (2 Bft)
14.02.2014 15:00 6,7 C 40 % 1011,4 hPa 0,0 l/m 4,5 km/h (1 Bft) NW 315 -5,9 C 8,2 C 5,8 km/h (2 Bft)
14.02.2014 15:05 6,6 C 40 % 1011,4 hPa 0,0 l/m 4,8 km/h (1 Bft) N-NW 337 -6,0 C 7,8 C 6,1 km/h (2 Bft)
14.02.2014 15:10 6,5 C 41 % 1011,4 hPa 0,0 l/m 4,2 km/h (1 Bft) W 270 -5,8 C 8,0 C 3,4 km/h (1 Bft)
14.02.2014 15:14 6,5 C 40 % 1011,4 hPa 0,0 l/m 4,0 km/h (1 Bft) W-NW 292 -6,1 C 8,1 C 2,9 km/h (1 Bft)
14.02.2014 15:15 6,5 C 40 % 1011,4 hPa 0,0 l/m 4,0 km/h (1 Bft) W-NW 292 -6,1 C 8,1 C 2,9 km/h (1 Bft)
14.02.2014 15:20 6,4 C 40 % 1011,4 hPa 0,0 l/m 4,0 km/h (1 Bft) N-NW 337 -6,2 C 7,8 C 2,7 km/h (1 Bft)
14.02.2014 15:25 6,4 C 40 % 1011,4 hPa 0,0 l/m 4,2 km/h (1 Bft) N-NW 337 -6,2 C 7,8 C 7,7 km/h (2 Bft)
14.02.2014 15:30 6,3 C 40 % 1011,0 hPa 0,0 l/m 4,2 km/h (1 Bft) W-NW 292 -6,3 C 7,4 C 3,2 km/h (1 Bft)
14.02.2014 15:35 6,2 C 40 % 1011,0 hPa 0,0 l/m 4,5 km/h (1 Bft) NO 45 -6,4 C 7,3 C 3,2 km/h (1 Bft)
14.02.2014 15:40 6,1 C 42 % 1011,0 hPa 0,0 l/m 4,2 km/h (1 Bft) N 360 -5,8 C 7,2 C 3,9 km/h (1 Bft)
14.02.2014 15:45 6,0 C 44 % 1011,0 hPa 0,0 l/m 4,5 km/h (1 Bft) N 360 -5,3 C 7,1 C 7,4 km/h (2 Bft)
14.02.2014 15:50 5,9 C 46 % 1010,9 hPa 0,0 l/m 3,5 km/h (1 Bft) NO 45 -4,8 C 7,3 C 2,6 km/h (1 Bft)
14.02.2014 15:55 5,9 C 44 % 1010,9 hPa 0,0 l/m 3,9 km/h (1 Bft) N-NW 337 -5,4 C 7,1 C 3,5 km/h (1 Bft)
14.02.2014 16:00 5,7 C 46 % 1010,9 hPa 0,0 l/m 3,7 km/h (1 Bft) N 360 -5,0 C 7,0 C 7,1 km/h (2 Bft)
14.02.2014 16:05 5,7 C 46 % 1010,9 hPa 0,0 l/m 4,0 km/h (1 Bft) N 360 -5,0 C 6,8 C 6,6 km/h (2 Bft)
14.02.2014 16:10 5,7 C 47 % 1010,4 hPa 0,0 l/m 5,1 km/h (1 Bft) N-NW 337 -4,7 C 6,3 C 5,8 km/h (2 Bft)
14.02.2014 16:15 5,6 C 46 % 1010,4 hPa 0,0 l/m 4,5 km/h (1 Bft) N-NW 337 -5,1 C 6,4 C 3,2 km/h (1 Bft)
14.02.2014 16:20 5,6 C 47 % 1010,4 hPa 0,0 l/m 3,4 km/h (1 Bft) W-NW 292 -4,8 C 6,9 C 2,4 km/h (1 Bft)
14.02.2014 16:25 5,5 C 47 % 1010,4 hPa 0,0 l/m 2,3 km/h (1 Bft) N 360 -4,9 C 6,8 C 6,1 km/h (2 Bft)
14.02.2014 16:30 5,4 C 47 % 1010,1 hPa 0,0 l/m 1,9 km/h (1 Bft) N-NO 22 -5,0 C 6,7 C 0,0 km/h (0 Bft)
14.02.2014 16:35 5,4 C 47 % 1010,1 hPa 0,0 l/m 1,3 km/h (1 Bft) O-NO 67 -5,0 C 6,7 C 0,0 km/h (0 Bft)
14.02.2014 16:40 5,4 C 47 % 1010,1 hPa 0,0 l/m 0,8 km/h (0 Bft) N-NW 337 -5,0 C 6,7 C 0,0 km/h (0 Bft)
14.02.2014 16:45 5,3 C 48 % 1010,1 hPa 0,0 l/m 1,0 km/h (0 Bft) N-NW 337 -4,8 C 6,7 C 0,0 km/h (0 Bft)
14.02.2014 16:50 5,1 C 49 % 1009,9 hPa 0,0 l/m 0,3 km/h (0 Bft) N 360 -4,7 C 6,6 C 0,0 km/h (0 Bft)
14.02.2014 16:55 5,1 C 48 % 1009,9 hPa 0,0 l/m 0,3 km/h (0 Bft) N-NO 22 -5,0 C 6,5 C 0,0 km/h (0 Bft)
14.02.2014 17:00 5,1 C 48 % 1009,9 hPa 0,0 l/m 0,3 km/h (0 Bft) N-NO 22 -5,0 C 6,2 C 0,0 km/h (0 Bft)
14.02.2014 17:05 5,0 C 49 % 1009,9 hPa 0,0 l/m 0,3 km/h (0 Bft) NO 45 -4,8 C 6,2 C 0,0 km/h (0 Bft)
14.02.2014 17:10 4,9 C 49 % 1009,8 hPa 0,0 l/m 1,0 km/h (0 Bft) O 90 -4,9 C 6,0 C 3,1 km/h (1 Bft)
14.02.2014 17:15 5,0 C 48 % 1009,8 hPa 0,0 l/m 1,4 km/h (1 Bft) O-SO 112 -5,1 C 5,9 C 1,8 km/h (1 Bft)
14.02.2014 17:20 4,8 C 50 % 1009,8 hPa 0,0 l/m 1,8 km/h (1 Bft) NO 45 -4,7 C 5,9 C 0,0 km/h (0 Bft)
14.02.2014 17:25 4,7 C 50 % 1009,8 hPa 0,0 l/m 1,1 km/h (1 Bft) O 90 -4,8 C 5,7 C 0,0 km/h (0 Bft)
14.02.2014 17:30 4,6 C 49 % 1009,3 hPa 0,0 l/m 0,3 km/h (0 Bft) N-NO 22 -5,2 C 5,5 C 0,0 km/h (0 Bft)
14.02.2014 17:35 4,6 C 50 % 1009,3 hPa 0,0 l/m 1,0 km/h (0 Bft) NO 45 -4,9 C 5,5 C 1,6 km/h (1 Bft)
14.02.2014 17:40 4,5 C 50 % 1009,3 hPa 0,0 l/m 1,6 km/h (1 Bft) O-SO 112 -5,0 C 5,3 C 2,7 km/h (1 Bft)
14.02.2014 17:45 4,5 C 51 % 1009,3 hPa 0,0 l/m 1,9 km/h (1 Bft) O 90 -4,7 C 5,2 C 3,9 km/h (1 Bft)
14.02.2014 17:50 4,3 C 52 % 1009,2 hPa 0,0 l/m 3,1 km/h (1 Bft) O-NO 67 -4,7 C 5,2 C 2,6 km/h (1 Bft)
14.02.2014 17:55 4,3 C 52 % 1009,2 hPa 0,0 l/m 3,2 km/h (1 Bft) O-NO 67 -4,7 C 5,0 C 2,4 km/h (1 Bft)
14.02.2014 18:00 4,1 C 53 % 1009,2 hPa 0,0 l/m 2,1 km/h (1 Bft) O-SO 112 -4,6 C 5,0 C 0,0 km/h (0 Bft)
14.02.2014 18:05 4,0 C 53 % 1009,2 hPa 0,0 l/m 1,1 km/h (1 Bft) NO 45 -4,7 C 5,0 C 1,6 km/h (1 Bft)
14.02.2014 18:10 4,1 C 53 % 1009,3 hPa 0,0 l/m 0,8 km/h (0 Bft) O 90 -4,6 C 4,7 C 4,0 km/h (1 Bft)
14.02.2014 18:15 4,1 C 54 % 1009,3 hPa 0,0 l/m 1,8 km/h (1 Bft) N 360 -4,4 C 4,7 C 3,2 km/h (1 Bft)
14.02.2014 18:20 3,8 C 56 % 1009,3 hPa 0,0 l/m 1,8 km/h (1 Bft) S 180 -4,2 C 4,8 C 0,0 km/h (0 Bft)
14.02.2014 18:25 3,9 C 55 % 1009,3 hPa 0,0 l/m 1,3 km/h (1 Bft) N-NO 22 -4,3 C 4,7 C 1,6 km/h (1 Bft)
14.02.2014 18:30 4,1 C 56 % 1009,4 hPa 0,0 l/m 2,6 km/h (1 Bft) N-NO 22 -3,9 C 4,7 C 3,7 km/h (1 Bft)
14.02.2014 18:35 3,7 C 57 % 1009,4 hPa 0,0 l/m 2,9 km/h (1 Bft) NO 45 -4,0 C 4,7 C 3,2 km/h (1 Bft)
14.02.2014 18:40 3,8 C 56 % 1009,4 hPa 0,0 l/m 1,9 km/h (1 Bft) NO 45 -4,2 C 4,6 C 2,6 km/h (1 Bft)
14.02.2014 18:45 3,9 C 56 % 1009,4 hPa 0,0 l/m 1,8 km/h (1 Bft) O-NO 67 -4,1 C 4,6 C 4,0 km/h (1 Bft)
14.02.2014 18:50 4,1 C 56 % 1009,0 hPa 0,0 l/m 2,9 km/h (1 Bft) N 360 -3,9 C 4,7 C 4,0 km/h (1 Bft)
14.02.2014 18:55 4,0 C 56 % 1009,0 hPa 0,0 l/m 3,7 km/h (1 Bft) O-NO 67 -4,0 C 4,3 C 6,6 km/h (2 Bft)
14.02.2014 19:00 3,9 C 55 % 1009,0 hPa 0,0 l/m 3,7 km/h (1 Bft) S 180 -4,3 C 4,4 C 1,8 km/h (1 Bft)
14.02.2014 19:05 3,8 C 56 % 1009,0 hPa 0,0 l/m 3,1 km/h (1 Bft) SO 135 -4,2 C 4,7 C 3,4 km/h (1 Bft)
14.02.2014 19:10 3,8 C 56 % 1008,8 hPa 0,0 l/m 1,8 km/h (1 Bft) O 90 -4,2 C 4,7 C 0,0 km/h (0 Bft)
14.02.2014 19:15 3,8 C 56 % 1008,8 hPa 0,0 l/m 1,6 km/h (1 Bft) O-NO 67 -4,2 C 4,7 C 0,0 km/h (0 Bft)
14.02.2014 19:20 3,6 C 57 % 1008,8 hPa 0,0 l/m 0,6 km/h (0 Bft) O 90 -4,1 C 4,5 C 2,7 km/h (1 Bft)
14.02.2014 19:25 3,7 C 57 % 1008,8 hPa 0,0 l/m 0,6 km/h (0 Bft) NO 45 -4,0 C 4,6 C 1,6 km/h (1 Bft)
14.02.2014 19:30 3,7 C 59 % 1008,6 hPa 0,0 l/m 1,1 km/h (1 Bft) NW 315 -3,6 C 4,5 C 0,0 km/h (0 Bft)
14.02.2014 19:35 3,5 C 58 % 1008,6 hPa 0,0 l/m 0,6 km/h (0 Bft) NO 45 -4,0 C 4,5 C 1,8 km/h (1 Bft)
14.02.2014 19:40 3,6 C 58 % 1008,6 hPa 0,0 l/m 0,5 km/h (0 Bft) O 90 -3,9 C 4,4 C 2,1 km/h (1 Bft)
14.02.2014 19:45 3,7 C 58 % 1008,6 hPa 0,0 l/m 1,0 km/h (0 Bft) O-NO 67 -3,8 C 4,4 C 2,4 km/h (1 Bft)
14.02.2014 19:50 3,7 C 59 % 1008,8 hPa 0,0 l/m 1,0 km/h (0 Bft) SO 135 -3,6 C 4,4 C 0,0 km/h (0 Bft)
14.02.2014 19:55 3,7 C 59 % 1008,8 hPa 0,0 l/m 0,6 km/h (0 Bft) NO 45 -3,6 C 4,4 C 0,0 km/h (0 Bft)
14.02.2014 20:00 3,7 C 59 % 1008,8 hPa 0,0 l/m 1,3 km/h (1 Bft) O-NO 67 -3,6 C 4,5 C 2,1 km/h (1 Bft)
14.02.2014 20:05 3,6 C 59 % 1008,8 hPa 0,0 l/m 1,1 km/h (1 Bft) S-SO 157 -3,6 C 4,4 C 0,0 km/h (0 Bft)
14.02.2014 20:10 3,2 C 61 % 1008,6 hPa 0,0 l/m 0,6 km/h (0 Bft) NO 45 -3,6 C 4,3 C 2,1 km/h (1 Bft)
14.02.2014 20:13 3,3 C 64 % 1008,6 hPa 0,0 l/m 1,1 km/h (1 Bft) N-NW 337 -2,8 C 4,2 C 2,1 km/h (1 Bft)
14.02.2014 20:15 3,3 C 64 % 1008,6 hPa 0,0 l/m 1,1 km/h (1 Bft) N-NW 337 -2,8 C 4,2 C 2,1 km/h (1 Bft)
14.02.2014 20:20 3,5 C 62 % 1008,6 hPa 0,0 l/m 1,8 km/h (1 Bft) O-NO 67 -3,1 C 4,2 C 2,1 km/h (1 Bft)
14.02.2014 20:25 3,6 C 61 % 1008,6 hPa 0,0 l/m 1,6 km/h (1 Bft) NO 45 -3,2 C 4,2 C 2,4 km/h (1 Bft)
14.02.2014 20:30 3,5 C 61 % 1008,7 hPa 0,0 l/m 1,6 km/h (1 Bft) S-SO 157 -3,3 C 4,3 C 0,0 km/h (0 Bft)
14.02.2014 20:35 3,4 C 61 % 1008,7 hPa 0,0 l/m 0,8 km/h (0 Bft) SO 135 -3,4 C 4,3 C 0,0 km/h (0 Bft)
14.02.2014 20:40 3,4 C 65 % 1008,7 hPa 0,0 l/m 0,8 km/h (0 Bft) N 360 -2,5 C 4,2 C 3,4 km/h (1 Bft)
14.02.2014 20:45 3,2 C 64 % 1008,7 hPa 0,0 l/m 1,1 km/h (1 Bft) W-NW 292 -2,9 C 4,2 C 0,0 km/h (0 Bft)
14.02.2014 20:50 3,2 C 64 % 1008,4 hPa 0,0 l/m 0,6 km/h (0 Bft) N-NO 22 -2,9 C 4,1 C 0,0 km/h (0 Bft)
14.02.2014 20:55 3,4 C 63 % 1008,4 hPa 0,0 l/m 0,6 km/h (0 Bft) O 90 -3,0 C 4,0 C 0,0 km/h (0 Bft)
14.02.2014 21:00 3,6 C 61 % 1008,4 hPa 0,0 l/m 1,4 km/h (1 Bft) NO 45 -3,2 C 4,1 C 1,8 km/h (1 Bft)
14.02.2014 21:05 3,5 C 60 % 1008,4 hPa 0,0 l/m 0,8 km/h (0 Bft) NO 45 -3,5 C 4,2 C 0,0 km/h (0 Bft)
14.02.2014 21:10 3,7 C 59 % 1008,2 hPa 0,0 l/m 1,0 km/h (0 Bft) O 90 -3,6 C 4,3 C 3,1 km/h (1 Bft)
14.02.2014 21:15 3,8 C 59 % 1008,2 hPa 0,0 l/m 1,4 km/h (1 Bft) O 90 -3,5 C 4,4 C 0,0 km/h (0 Bft)
14.02.2014 21:20 3,4 C 60 % 1008,2 hPa 0,0 l/m 0,6 km/h (0 Bft) O 90 -3,6 C 4,3 C 0,0 km/h (0 Bft)
14.02.2014 21:25 3,3 C 60 % 1008,2 hPa 0,0 l/m 0,0 km/h (0 Bft) O 90 -3,7 C 4,3 C 0,0 km/h (0 Bft)
14.02.2014 21:30 3,5 C 64 % 1008,1 hPa 0,0 l/m 0,2 km/h (0 Bft) N 360 -2,7 C 4,3 C 1,6 km/h (1 Bft)
14.02.2014 21:35 3,6 C 63 % 1008,1 hPa 0,0 l/m 0,8 km/h (0 Bft) NO 45 -2,8 C 4,3 C 1,9 km/h (1 Bft)
14.02.2014 21:40 3,9 C 63 % 1008,1 hPa 0,0 l/m 1,3 km/h (1 Bft) N-NO 22 -2,5 C 4,5 C 3,1 km/h (1 Bft)
14.02.2014 21:45 3,8 C 62 % 1008,1 hPa 0,0 l/m 1,0 km/h (0 Bft) NO 45 -2,8 C 4,6 C 0,0 km/h (0 Bft)
14.02.2014 21:50 3,7 C 63 % 1008,0 hPa 0,0 l/m 0,5 km/h (0 Bft) NO 45 -2,7 C 4,6 C 0,0 km/h (0 Bft)
14.02.2014 21:55 3,7 C 63 % 1008,0 hPa 0,0 l/m 0,2 km/h (0 Bft) NO 45 -2,7 C 4,6 C 0,0 km/h (0 Bft)
14.02.2014 22:00 3,5 C 63 % 1008,0 hPa 0,0 l/m 0,3 km/h (0 Bft) S 180 -2,9 C 4,4 C 2,6 km/h (1 Bft)
14.02.2014 22:05 3,4 C 63 % 1008,0 hPa 0,0 l/m 0,8 km/h (0 Bft) O-SO 112 -3,0 C 4,3 C 3,5 km/h (1 Bft)
14.02.2014 22:10 3,3 C 63 % 1007,9 hPa 0,0 l/m 1,8 km/h (1 Bft) O-SO 112 -3,1 C 4,0 C 2,1 km/h (1 Bft)
14.02.2014 22:15 3,3 C 63 % 1007,9 hPa 0,0 l/m 1,1 km/h (1 Bft) W-NW 292 -3,1 C 3,9 C 0,0 km/h (0 Bft)
14.02.2014 22:20 2,9 C 66 % 1007,9 hPa 0,0 l/m 0,6 km/h (0 Bft) W-SW 247 -2,8 C 3,5 C 0,0 km/h (0 Bft)
14.02.2014 22:25 2,7 C 67 % 1007,9 hPa 0,0 l/m 0,6 km/h (0 Bft) O 90 -2,8 C 3,2 C 1,6 km/h (1 Bft)
14.02.2014 22:30 2,4 C 68 % 1007,6 hPa 0,0 l/m 1,0 km/h (0 Bft) O-SO 112 -2,9 C 2,8 C 5,3 km/h (1 Bft)
14.02.2014 22:35 2,6 C 68 % 1007,6 hPa 0,0 l/m 1,8 km/h (1 Bft) W-SW 247 -2,7 C 2,8 C 2,1 km/h (1 Bft)
14.02.2014 22:40 2,4 C 68 % 1007,6 hPa 0,0 l/m 1,9 km/h (1 Bft) SO 135 -2,9 C 2,8 C 3,4 km/h (1 Bft)
14.02.2014 22:45 2,7 C 68 % 1007,6 hPa 0,0 l/m 1,6 km/h (1 Bft) SW 225 -2,6 C 2,9 C 0,0 km/h (0 Bft)
14.02.2014 22:50 2,9 C 68 % 1007,6 hPa 0,0 l/m 1,4 km/h (1 Bft) NO 45 -2,4 C 3,1 C 2,1 km/h (1 Bft)
14.02.2014 22:55 3,0 C 67 % 1007,6 hPa 0,0 l/m 0,8 km/h (0 Bft) N-NW 337 -2,5 C 3,1 C 0,0 km/h (0 Bft)
14.02.2014 23:00 2,7 C 68 % 1007,6 hPa 0,0 l/m 1,0 km/h (0 Bft) O-SO 112 -2,6 C 3,1 C 3,4 km/h (1 Bft)
14.02.2014 23:05 3,3 C 68 % 1007,6 hPa 0,0 l/m 1,8 km/h (1 Bft) W-NW 292 -2,0 C 3,3 C 3,5 km/h (1 Bft)
14.02.2014 23:10 3,3 C 67 % 1007,3 hPa 0,0 l/m 2,1 km/h (1 Bft) W-NW 292 -2,2 C 4,0 C 1,8 km/h (1 Bft)
14.02.2014 23:15 3,6 C 68 % 1007,3 hPa 0,0 l/m 1,3 km/h (1 Bft) S 180 -1,7 C 4,6 C 2,7 km/h (1 Bft)
14.02.2014 23:20 4,2 C 68 % 1007,3 hPa 0,0 l/m 1,9 km/h (1 Bft) W-NW 292 -1,2 C 5,0 C 6,0 km/h (2 Bft)
14.02.2014 23:25 4,4 C 67 % 1007,3 hPa 0,0 l/m 2,7 km/h (1 Bft) O-NO 67 -1,2 C 5,3 C 2,7 km/h (1 Bft)
14.02.2014 23:30 4,6 C 67 % 1007,0 hPa 0,0 l/m 3,2 km/h (1 Bft) S-SW 202 -1,0 C 5,6 C 3,5 km/h (1 Bft)
14.02.2014 23:35 4,6 C 66 % 1007,0 hPa 0,0 l/m 2,9 km/h (1 Bft) NO 45 -1,2 C 5,9 C 0,0 km/h (0 Bft)
14.02.2014 23:40 4,5 C 65 % 1007,0 hPa 0,0 l/m 3,2 km/h (1 Bft) S 180 -1,5 C 5,9 C 3,4 km/h (1 Bft)
14.02.2014 23:45 4,8 C 65 % 1007,0 hPa 0,0 l/m 3,1 km/h (1 Bft) W 270 -1,2 C 6,0 C 1,8 km/h (1 Bft)
14.02.2014 23:50 4,7 C 64 % 1007,1 hPa 0,0 l/m 2,7 km/h (1 Bft) SO 135 -1,5 C 6,0 C 6,0 km/h (2 Bft)
14.02.2014 23:55 4,7 C 64 % 1007,1 hPa 0,0 l/m 2,4 km/h (1 Bft) S-SW 202 -1,5 C 6,0 C 4,8 km/h (1 Bft)
_ Min-Zeit 08:45 14:20 00:05 - 21:25 - - 13:35 01:35 23:35
Minimum _ -2,7 C 39 % 1005,9 hPa - 0,0 km/h (0 Bft) - - -7,0 C -13,4 C 0,0 km/h (0 Bft)
_ Max-Zeit 14:10 01:25 13:05 23:55 01:35 - - 00:35 13:25 02:20
Maximum _ 7,1 C 94 % 1013,6 hPa 0,0 l/m 18,0 km/h
W-SW (3 Bft)
- - 0,0 C 12,7 C 36,2 km/h
S-SO (5 Bft)
Durchschnitt _ 2,3 C 66 % 1010,2 hPa #0,0 l/m 4,9 km/h (1 Bft) S-SO - -3,7 C 1,5 C 5,8 km/h (1 Bft)